createdAt,value
2018-12-03T00:00:03.656Z,931.08
2018-12-03T00:01:03.836Z,931.03
2018-12-03T00:02:03.901Z,931.03
2018-12-03T00:03:03.729Z,931.02
2018-12-03T00:04:03.752Z,931.06
2018-12-03T00:05:03.761Z,931.08
2018-12-03T00:06:03.877Z,931.06
2018-12-03T00:07:03.798Z,931.08
2018-12-03T00:08:03.818Z,931.07
2018-12-03T00:09:03.841Z,931.15
2018-12-03T00:10:03.863Z,931.12
2018-12-03T00:11:04.384Z,931.14
2018-12-03T00:12:03.899Z,931.13
2018-12-03T00:13:03.913Z,931.14
2018-12-03T00:14:03.940Z,931.10
2018-12-03T00:15:03.952Z,931.15
2018-12-03T00:16:04.222Z,931.10
2018-12-03T00:17:03.978Z,931.10
2018-12-03T00:18:04.012Z,931.13
2018-12-03T00:19:04.026Z,931.15
2018-12-03T00:20:04.039Z,931.15
2018-12-03T00:21:04.141Z,931.17
2018-12-03T00:22:04.080Z,931.18
2018-12-03T00:23:04.097Z,931.19
2018-12-03T00:24:04.127Z,931.23
2018-12-03T00:25:04.123Z,931.21
2018-12-03T00:26:04.252Z,931.27
2018-12-03T00:27:04.173Z,931.26
2018-12-03T00:28:04.188Z,931.29
2018-12-03T00:29:04.205Z,931.27
2018-12-03T00:30:04.210Z,931.31
2018-12-03T00:31:04.352Z,931.32
2018-12-03T00:32:04.251Z,931.34
2018-12-03T00:33:04.281Z,931.31
2018-12-03T00:34:04.300Z,931.34
2018-12-03T00:35:04.323Z,931.28
2018-12-03T00:36:04.442Z,931.28
2018-12-03T00:37:04.340Z,931.28
2018-12-03T00:38:04.359Z,931.26
2018-12-03T00:39:04.396Z,931.26
2018-12-03T00:40:04.597Z,931.25
2018-12-03T00:41:04.420Z,931.24
2018-12-03T00:42:04.554Z,931.26
2018-12-03T00:43:04.467Z,931.28
2018-12-03T00:44:04.487Z,931.28
2018-12-03T00:45:04.903Z,931.32
2018-12-03T00:46:04.524Z,931.33
2018-12-03T00:47:04.644Z,931.30
2018-12-03T00:48:04.559Z,931.31
2018-12-03T00:49:04.575Z,931.36
2018-12-03T00:50:04.590Z,931.37
2018-12-03T00:51:04.600Z,931.39
2018-12-03T00:52:04.730Z,931.42
2018-12-03T00:53:04.841Z,931.40
2018-12-03T00:54:04.666Z,931.41
2018-12-03T00:55:04.674Z,931.46
2018-12-03T00:56:04.704Z,931.45
2018-12-03T00:57:04.823Z,931.34
2018-12-03T00:58:04.746Z,931.37
2018-12-03T00:59:04.748Z,931.39
2018-12-03T01:00:04.783Z,931.37
2018-12-03T01:01:04.792Z,931.35
2018-12-03T01:02:05.068Z,931.35
2018-12-03T01:03:04.835Z,931.33
2018-12-03T01:04:04.852Z,931.35
2018-12-03T01:05:04.872Z,931.31
2018-12-03T01:06:04.888Z,931.30
2018-12-03T01:07:05.095Z,931.29
2018-12-03T01:08:04.912Z,931.28
2018-12-03T01:09:04.983Z,931.30
2018-12-03T01:10:05.164Z,931.27
2018-12-03T01:11:04.968Z,931.31
2018-12-03T01:12:05.237Z,931.29
2018-12-03T01:13:05.021Z,931.33
2018-12-03T01:14:06.342Z,931.32
2018-12-03T01:15:05.056Z,931.30
2018-12-03T01:16:05.060Z,931.33
2018-12-03T01:17:05.330Z,931.29
2018-12-03T01:18:05.111Z,931.30
2018-12-03T01:19:05.128Z,931.33
2018-12-03T01:20:05.145Z,931.32
2018-12-03T01:21:05.168Z,931.30
2018-12-03T01:22:05.436Z,931.29
2018-12-03T01:23:05.189Z,931.33
2018-12-03T01:24:05.224Z,931.35
2018-12-03T01:25:05.238Z,931.33
2018-12-03T01:26:05.259Z,931.32
2018-12-03T01:27:05.271Z,931.29
2018-12-03T01:28:05.398Z,931.27
2018-12-03T01:29:05.315Z,931.29
2018-12-03T01:30:05.326Z,931.28
2018-12-03T01:31:05.343Z,931.23
2018-12-03T01:32:05.368Z,931.25
2018-12-03T01:33:05.472Z,931.25
2018-12-03T01:34:05.400Z,931.25
2018-12-03T01:35:05.414Z,931.25
2018-12-03T01:36:05.459Z,931.26
2018-12-03T01:37:05.460Z,931.26
2018-12-03T01:38:05.716Z,931.25
2018-12-03T01:39:05.497Z,931.27
2018-12-03T01:40:05.723Z,931.22
2018-12-03T01:41:05.533Z,931.17
2018-12-03T01:42:05.558Z,931.20
2018-12-03T01:43:05.858Z,931.21
2018-12-03T01:44:05.592Z,931.21
2018-12-03T01:45:05.603Z,931.22
2018-12-03T01:46:05.624Z,931.21
2018-12-03T01:47:05.662Z,931.20
2018-12-03T01:48:05.764Z,931.23
2018-12-03T01:49:05.680Z,931.26
2018-12-03T01:50:05.693Z,931.23
2018-12-03T01:51:05.720Z,931.29
2018-12-03T01:52:05.714Z,931.25
2018-12-03T01:53:05.854Z,931.26
2018-12-03T01:54:05.770Z,931.24
2018-12-03T01:55:06.180Z,931.24
2018-12-03T01:56:06.015Z,931.20
2018-12-03T01:57:05.824Z,931.16
2018-12-03T01:58:06.091Z,931.15
2018-12-03T01:59:05.867Z,931.17
2018-12-03T02:00:06.082Z,931.17
2018-12-03T02:01:05.883Z,931.19
2018-12-03T02:02:05.904Z,931.14
2018-12-03T02:03:06.240Z,931.12
2018-12-03T02:04:05.957Z,931.14
2018-12-03T02:05:05.971Z,931.09
2018-12-03T02:06:05.991Z,931.12
2018-12-03T02:07:06.004Z,931.14
2018-12-03T02:08:06.130Z,931.13
2018-12-03T02:09:06.039Z,931.14
2018-12-03T02:10:06.067Z,931.10
2018-12-03T02:11:06.082Z,931.09
2018-12-03T02:12:06.092Z,931.07
2018-12-03T02:13:06.218Z,931.05
2018-12-03T02:14:06.143Z,931.04
2018-12-03T02:15:06.138Z,931.04
2018-12-03T02:16:06.168Z,931.00
2018-12-03T02:17:06.192Z,931.02
2018-12-03T02:18:06.464Z,931.00
2018-12-03T02:19:06.214Z,930.96
2018-12-03T02:20:06.234Z,930.94
2018-12-03T02:21:06.272Z,930.94
2018-12-03T02:22:06.286Z,930.93
2018-12-03T02:23:06.309Z,930.96
2018-12-03T02:24:06.573Z,930.97
2018-12-03T02:25:06.338Z,930.97
2018-12-03T02:26:06.355Z,930.95
2018-12-03T02:27:06.373Z,930.95
2018-12-03T02:28:06.389Z,930.92
2018-12-03T02:29:06.412Z,930.88
2018-12-03T02:30:06.510Z,930.90
2018-12-03T02:31:06.431Z,930.88
2018-12-03T02:32:06.466Z,930.90
2018-12-03T02:33:06.485Z,930.89
2018-12-03T02:34:06.500Z,930.89
2018-12-03T02:35:06.615Z,930.90
2018-12-03T02:36:06.539Z,930.89
2018-12-03T02:37:06.556Z,930.82
2018-12-03T02:38:06.574Z,930.79
2018-12-03T02:39:06.594Z,930.79
2018-12-03T02:40:06.713Z,930.75
2018-12-03T02:41:06.618Z,930.75
2018-12-03T02:42:06.647Z,930.73
2018-12-03T02:43:06.651Z,930.78
2018-12-03T02:44:06.871Z,930.79
2018-12-03T02:45:06.801Z,930.77
2018-12-03T02:46:06.722Z,930.78
2018-12-03T02:47:06.735Z,930.81
2018-12-03T02:48:06.753Z,930.83
2018-12-03T02:49:06.770Z,930.86
2018-12-03T02:50:07.091Z,930.81
2018-12-03T02:51:06.808Z,930.83
2018-12-03T02:52:06.823Z,930.82
2018-12-03T02:53:06.834Z,930.86
2018-12-03T02:54:06.858Z,930.85
2018-12-03T02:55:06.978Z,930.87
2018-12-03T02:56:06.882Z,930.88
2018-12-03T02:57:06.919Z,930.88
2018-12-03T02:58:06.936Z,930.88
2018-12-03T02:59:06.956Z,930.89
2018-12-03T03:00:07.071Z,930.88
2018-12-03T03:01:06.971Z,930.86
2018-12-03T03:02:07.010Z,930.91
2018-12-03T03:03:07.012Z,930.90
2018-12-03T03:04:07.027Z,930.87
2018-12-03T03:05:07.163Z,930.82
2018-12-03T03:06:07.076Z,930.83
2018-12-03T03:07:07.097Z,930.88
2018-12-03T03:08:07.924Z,930.84
2018-12-03T03:09:07.135Z,930.83
2018-12-03T03:10:07.253Z,930.86
2018-12-03T03:11:07.164Z,930.82
2018-12-03T03:12:07.191Z,930.85
2018-12-03T03:13:07.211Z,930.85
2018-12-03T03:14:07.211Z,930.81
2018-12-03T03:15:07.495Z,930.77
2018-12-03T03:16:07.260Z,930.78
2018-12-03T03:17:07.258Z,930.79
2018-12-03T03:18:07.279Z,930.79
2018-12-03T03:19:07.297Z,930.79
2018-12-03T03:20:07.316Z,930.81
2018-12-03T03:21:07.447Z,930.79
2018-12-03T03:22:07.354Z,930.78
2018-12-03T03:23:07.378Z,930.76
2018-12-03T03:24:07.411Z,930.74
2018-12-03T03:25:07.422Z,930.78
2018-12-03T03:26:07.533Z,930.71
2018-12-03T03:27:07.440Z,930.74
2018-12-03T03:28:07.455Z,930.73
2018-12-03T03:29:07.501Z,930.77
2018-12-03T03:30:07.513Z,930.76
2018-12-03T03:31:07.778Z,930.69
2018-12-03T03:32:07.527Z,930.73
2018-12-03T03:33:07.565Z,930.73
2018-12-03T03:34:07.577Z,930.64
2018-12-03T03:35:07.606Z,930.65
2018-12-03T03:36:07.706Z,930.63
2018-12-03T03:37:07.636Z,930.57
2018-12-03T03:38:07.651Z,930.59
2018-12-03T03:39:07.666Z,930.54
2018-12-03T03:40:07.688Z,930.53
2018-12-03T03:41:07.957Z,930.50
2018-12-03T03:42:07.723Z,930.55
2018-12-03T03:43:07.741Z,930.58
2018-12-03T03:44:07.760Z,930.59
2018-12-03T03:45:07.776Z,930.56
2018-12-03T03:46:08.043Z,930.58
2018-12-03T03:47:07.812Z,930.58
2018-12-03T03:48:07.831Z,930.59
2018-12-03T03:49:07.849Z,930.57
2018-12-03T03:50:07.864Z,930.63
2018-12-03T03:51:07.976Z,930.60
2018-12-03T03:52:07.906Z,930.58
2018-12-03T03:53:07.917Z,930.59
2018-12-03T03:54:07.940Z,930.58
2018-12-03T03:55:07.959Z,930.56
2018-12-03T03:56:08.070Z,930.57
2018-12-03T03:57:07.973Z,930.53
2018-12-03T03:58:08.012Z,930.51
2018-12-03T03:59:08.015Z,930.47
2018-12-03T04:00:08.041Z,930.52
2018-12-03T04:01:08.160Z,930.52
2018-12-03T04:02:08.085Z,930.51
2018-12-03T04:03:08.098Z,930.47
2018-12-03T04:04:08.111Z,930.48
2018-12-03T04:05:08.134Z,930.49
2018-12-03T04:06:08.397Z,930.52
2018-12-03T04:07:08.159Z,930.48
2018-12-03T04:08:08.187Z,930.45
2018-12-03T04:09:08.201Z,930.42
2018-12-03T04:10:08.229Z,930.43
2018-12-03T04:11:08.239Z,930.37
2018-12-03T04:12:08.519Z,930.44
2018-12-03T04:13:08.269Z,930.45
2018-12-03T04:14:08.302Z,930.43
2018-12-03T04:15:08.297Z,930.40
2018-12-03T04:16:08.334Z,930.45
2018-12-03T04:17:08.358Z,930.40
2018-12-03T04:18:08.468Z,930.41
2018-12-03T04:19:08.380Z,930.40
2018-12-03T04:20:08.399Z,930.38
2018-12-03T04:21:08.419Z,930.46
2018-12-03T04:22:08.438Z,930.44
2018-12-03T04:23:08.721Z,930.45
2018-12-03T04:24:08.475Z,930.47
2018-12-03T04:25:08.494Z,930.49
2018-12-03T04:26:08.501Z,930.45
2018-12-03T04:27:08.530Z,930.46
2018-12-03T04:28:08.642Z,930.46
2018-12-03T04:29:08.562Z,930.46
2018-12-03T04:30:08.584Z,930.37
2018-12-03T04:31:08.596Z,930.33
2018-12-03T04:32:08.602Z,930.37
2018-12-03T04:33:08.885Z,930.39
2018-12-03T04:34:08.650Z,930.40
2018-12-03T04:35:08.671Z,930.38
2018-12-03T04:36:08.685Z,930.37
2018-12-03T04:37:08.705Z,930.38
2018-12-03T04:38:08.823Z,930.38
2018-12-03T04:39:08.738Z,930.35
2018-12-03T04:40:08.758Z,930.34
2018-12-03T04:41:09.172Z,930.33
2018-12-03T04:42:08.795Z,930.33
2018-12-03T04:43:08.911Z,930.27
2018-12-03T04:44:08.833Z,930.35
2018-12-03T04:45:08.849Z,930.33
2018-12-03T04:46:08.870Z,930.33
2018-12-03T04:47:08.883Z,930.30
2018-12-03T04:48:09.152Z,930.31
2018-12-03T04:49:08.915Z,930.33
2018-12-03T04:50:08.934Z,930.26
2018-12-03T04:51:08.935Z,930.26
2018-12-03T04:52:08.968Z,930.20
2018-12-03T04:53:09.075Z,930.20
2018-12-03T04:54:09.010Z,930.23
2018-12-03T04:55:09.028Z,930.19
2018-12-03T04:56:09.127Z,930.21
2018-12-03T04:57:09.044Z,930.21
2018-12-03T04:58:09.723Z,930.21
2018-12-03T04:59:09.100Z,930.19
2018-12-03T05:00:09.109Z,930.23
2018-12-03T05:01:09.136Z,930.25
2018-12-03T05:02:09.145Z,930.23
2018-12-03T05:03:09.269Z,930.26
2018-12-03T05:04:09.184Z,930.27
2018-12-03T05:05:09.191Z,930.26
2018-12-03T05:06:09.201Z,930.26
2018-12-03T05:07:09.242Z,930.23
2018-12-03T05:08:09.504Z,930.28
2018-12-03T05:09:09.256Z,930.25
2018-12-03T05:10:09.298Z,930.23
2018-12-03T05:11:09.504Z,930.18
2018-12-03T05:12:09.323Z,930.22
2018-12-03T05:13:09.344Z,930.22
2018-12-03T05:14:09.614Z,930.16
2018-12-03T05:15:09.374Z,930.16
2018-12-03T05:16:09.396Z,930.15
2018-12-03T05:17:09.410Z,930.17
2018-12-03T05:18:09.433Z,930.17
2018-12-03T05:19:09.552Z,930.11
2018-12-03T05:20:09.468Z,930.10
2018-12-03T05:21:09.487Z,930.10
2018-12-03T05:22:09.504Z,930.09
2018-12-03T05:23:09.533Z,930.06
2018-12-03T05:24:09.636Z,930.04
2018-12-03T05:25:09.557Z,930.03
2018-12-03T05:26:09.560Z,930.03
2018-12-03T05:27:09.596Z,929.97
2018-12-03T05:28:09.593Z,930.01
2018-12-03T05:29:09.864Z,929.99
2018-12-03T05:30:09.631Z,929.99
2018-12-03T05:31:09.660Z,929.99
2018-12-03T05:32:09.681Z,929.99
2018-12-03T05:33:09.697Z,929.98
2018-12-03T05:34:09.970Z,929.97
2018-12-03T05:35:09.725Z,929.92
2018-12-03T05:36:09.748Z,929.95
2018-12-03T05:37:09.772Z,929.93
2018-12-03T05:38:09.791Z,929.91
2018-12-03T05:39:09.905Z,929.92
2018-12-03T05:40:09.804Z,929.87
2018-12-03T05:41:09.838Z,929.88
2018-12-03T05:42:09.841Z,929.87
2018-12-03T05:43:09.880Z,929.85
2018-12-03T05:44:09.993Z,929.85
2018-12-03T05:45:09.915Z,929.86
2018-12-03T05:46:09.931Z,929.86
2018-12-03T05:47:09.945Z,929.82
2018-12-03T05:48:09.968Z,929.85
2018-12-03T05:49:10.083Z,929.80
2018-12-03T05:50:10.406Z,929.83
2018-12-03T05:51:10.021Z,929.78
2018-12-03T05:52:10.035Z,929.77
2018-12-03T05:53:10.036Z,929.82
2018-12-03T05:54:10.159Z,929.86
2018-12-03T05:55:10.130Z,929.84
2018-12-03T05:56:10.104Z,929.81
2018-12-03T05:57:10.121Z,929.84
2018-12-03T05:58:10.145Z,929.86
2018-12-03T05:59:10.393Z,929.90
2018-12-03T06:00:10.163Z,929.86
2018-12-03T06:01:10.194Z,929.89
2018-12-03T06:02:10.214Z,929.86
2018-12-03T06:03:10.218Z,929.87
2018-12-03T06:04:10.235Z,929.83
2018-12-03T06:05:10.504Z,929.82
2018-12-03T06:06:10.493Z,929.83
2018-12-03T06:07:10.299Z,929.83
2018-12-03T06:08:10.318Z,929.81
2018-12-03T06:09:10.343Z,929.83
2018-12-03T06:10:10.340Z,929.84
2018-12-03T06:11:10.619Z,929.85
2018-12-03T06:12:10.398Z,929.87
2018-12-03T06:13:10.407Z,929.88
2018-12-03T06:14:10.423Z,929.93
2018-12-03T06:15:10.448Z,929.93
2018-12-03T06:16:10.557Z,929.93
2018-12-03T06:17:10.475Z,929.93
2018-12-03T06:18:10.496Z,929.93
2018-12-03T06:19:10.516Z,929.92
2018-12-03T06:20:10.932Z,929.93
2018-12-03T06:21:10.634Z,929.95
2018-12-03T06:22:10.574Z,929.97
2018-12-03T06:23:10.572Z,930.01
2018-12-03T06:24:10.596Z,929.97
2018-12-03T06:25:10.632Z,930.02
2018-12-03T06:26:10.872Z,930.03
2018-12-03T06:27:10.859Z,930.03
2018-12-03T06:28:11.072Z,930.03
2018-12-03T06:29:10.687Z,930.00
2018-12-03T06:30:10.696Z,930.01
2018-12-03T06:31:10.961Z,930.04
2018-12-03T06:32:10.746Z,930.00
2018-12-03T06:33:10.762Z,929.94
2018-12-03T06:34:10.778Z,929.95
2018-12-03T06:35:11.002Z,929.93
2018-12-03T06:36:10.915Z,929.92
2018-12-03T06:37:10.834Z,929.93
2018-12-03T06:38:15.285Z,929.94
2018-12-03T06:39:11.071Z,929.92
2018-12-03T06:40:10.887Z,929.91
2018-12-03T06:41:11.005Z,929.95
2018-12-03T06:42:10.918Z,929.90
2018-12-03T06:43:10.937Z,929.93
2018-12-03T06:44:10.976Z,929.88
2018-12-03T06:45:10.959Z,929.88
2018-12-03T06:46:11.243Z,929.94
2018-12-03T06:47:11.215Z,929.93
2018-12-03T06:48:11.027Z,929.98
2018-12-03T06:49:11.038Z,929.93
2018-12-03T06:50:11.062Z,929.96
2018-12-03T06:51:11.330Z,929.97
2018-12-03T06:52:11.097Z,929.93
2018-12-03T06:53:11.116Z,929.95
2018-12-03T06:54:11.119Z,929.95
2018-12-03T06:55:11.141Z,929.97
2018-12-03T06:56:11.412Z,929.98
2018-12-03T06:57:11.171Z,929.99
2018-12-03T06:58:11.199Z,930.00
2018-12-03T06:59:11.223Z,930.08
2018-12-03T07:00:11.224Z,930.03
2018-12-03T07:01:11.253Z,930.07
2018-12-03T07:04:11.556Z,930.15
2018-12-03T07:05:11.512Z,930.17
2018-12-03T07:06:11.347Z,930.16
2018-12-03T07:07:11.359Z,930.19
2018-12-03T07:08:11.365Z,930.23
2018-12-03T07:09:11.493Z,930.16
2018-12-03T07:10:11.411Z,930.18
2018-12-03T07:11:11.431Z,930.22
2018-12-03T07:12:11.448Z,930.16
2018-12-03T07:13:11.466Z,930.13
2018-12-03T07:14:11.588Z,930.16
2018-12-03T07:15:11.501Z,930.16
2018-12-03T07:16:11.519Z,930.16
2018-12-03T07:17:12.821Z,930.15
2018-12-03T07:18:11.552Z,930.16
2018-12-03T07:19:11.877Z,930.12
2018-12-03T07:20:11.599Z,930.13
2018-12-03T07:21:11.607Z,930.16
2018-12-03T07:22:11.624Z,930.16
2018-12-03T07:23:11.672Z,930.16
2018-12-03T07:24:11.761Z,930.18
2018-12-03T07:25:11.678Z,930.26
2018-12-03T07:26:11.737Z,930.24
2018-12-03T07:27:11.717Z,930.25
2018-12-03T07:28:11.727Z,930.28
2018-12-03T07:29:11.984Z,930.29
2018-12-03T07:30:11.768Z,930.29
2018-12-03T07:31:11.787Z,930.28
2018-12-03T07:32:11.851Z,930.30
2018-12-03T07:33:11.822Z,930.29
2018-12-03T07:34:12.138Z,930.33
2018-12-03T07:35:11.853Z,930.34
2018-12-03T07:36:11.870Z,930.33
2018-12-03T07:37:11.892Z,930.33
2018-12-03T07:38:11.908Z,930.34
2018-12-03T07:39:12.174Z,930.37
2018-12-03T07:40:11.951Z,930.36
2018-12-03T07:41:11.947Z,930.36
2018-12-03T07:42:11.963Z,930.35
2018-12-03T07:43:12.195Z,930.32
2018-12-03T07:44:12.111Z,930.36
2018-12-03T07:45:12.039Z,930.36
2018-12-03T07:46:12.042Z,930.36
2018-12-03T07:47:12.060Z,930.40
2018-12-03T07:48:12.094Z,930.37
2018-12-03T07:49:12.194Z,930.37
2018-12-03T07:50:12.118Z,930.39
2018-12-03T07:51:12.138Z,930.41
2018-12-03T07:52:12.156Z,930.42
2018-12-03T07:53:12.170Z,930.44
2018-12-03T07:54:13.177Z,930.45
2018-12-03T07:55:12.190Z,930.45
2018-12-03T07:56:12.238Z,930.46
2018-12-03T07:57:12.226Z,930.48
2018-12-03T07:58:12.261Z,930.46
2018-12-03T07:59:12.523Z,930.43
2018-12-03T08:00:12.293Z,930.48
2018-12-03T08:01:12.311Z,930.47
2018-12-03T08:02:12.324Z,930.49
2018-12-03T08:03:12.329Z,930.49
2018-12-03T08:04:12.475Z,930.54
2018-12-03T08:05:12.387Z,930.54
2018-12-03T08:06:12.405Z,930.54
2018-12-03T08:07:12.418Z,930.51
2018-12-03T08:08:12.433Z,930.55
2018-12-03T08:09:12.552Z,930.55
2018-12-03T08:10:12.465Z,930.55
2018-12-03T08:11:12.486Z,930.60
2018-12-03T08:12:12.504Z,930.62
2018-12-03T08:13:12.535Z,930.61
2018-12-03T08:14:12.781Z,930.66
2018-12-03T08:15:12.557Z,930.69
2018-12-03T08:16:12.558Z,930.70
2018-12-03T08:17:12.579Z,930.78
2018-12-03T08:18:12.605Z,930.77
2018-12-03T08:19:12.876Z,930.78
2018-12-03T08:20:12.647Z,930.79
2018-12-03T08:21:12.664Z,930.81
2018-12-03T08:22:12.679Z,930.78
2018-12-03T08:23:12.699Z,930.79
2018-12-03T08:24:12.969Z,930.81
2018-12-03T08:25:12.741Z,930.81
2018-12-03T08:26:12.751Z,930.83
2018-12-03T08:27:12.768Z,930.83
2018-12-03T08:28:12.790Z,930.80
2018-12-03T08:29:12.903Z,930.87
2018-12-03T08:30:12.820Z,930.85
2018-12-03T08:31:12.838Z,930.85
2018-12-03T08:32:12.858Z,930.90
2018-12-03T08:33:12.872Z,930.90
2018-12-03T08:34:13.051Z,930.87
2018-12-03T08:35:13.314Z,930.88
2018-12-03T08:36:12.924Z,930.89
2018-12-03T08:37:12.942Z,930.91
2018-12-03T08:38:12.946Z,930.92
2018-12-03T08:39:13.080Z,930.91
2018-12-03T08:40:13.001Z,930.88
2018-12-03T08:41:13.013Z,930.94
2018-12-03T08:42:13.034Z,930.93
2018-12-03T08:43:13.452Z,930.90
2018-12-03T08:44:13.575Z,930.96
2018-12-03T08:45:13.088Z,930.95
2018-12-03T08:46:13.102Z,930.95
2018-12-03T08:47:13.123Z,930.94
2018-12-03T08:48:13.135Z,930.98
2018-12-03T08:49:13.397Z,930.96
2018-12-03T08:50:13.179Z,930.96
2018-12-03T08:51:13.189Z,930.94
2018-12-03T08:52:13.210Z,930.94
2018-12-03T08:53:13.220Z,930.98
2018-12-03T08:54:13.646Z,930.97
2018-12-03T08:55:13.360Z,931.00
2018-12-03T08:56:13.273Z,931.00
2018-12-03T08:57:13.292Z,931.06
2018-12-03T08:58:13.315Z,931.06
2018-12-03T08:59:13.330Z,931.04
2018-12-03T09:00:13.587Z,931.06
2018-12-03T09:01:13.345Z,931.05
2018-12-03T09:02:13.822Z,931.05
2018-12-03T09:03:13.399Z,931.03
2018-12-03T09:04:13.414Z,931.05
2018-12-03T09:05:13.534Z,931.05
2018-12-03T09:06:13.451Z,931.04
2018-12-03T09:07:13.477Z,931.11
2018-12-03T09:08:13.493Z,931.12
2018-12-03T09:09:13.507Z,931.11
2018-12-03T09:10:13.609Z,931.09
2018-12-03T09:11:13.536Z,931.10
2018-12-03T09:12:13.557Z,931.13
2018-12-03T09:13:13.597Z,931.15
2018-12-03T09:14:13.591Z,931.12
2018-12-03T09:15:13.709Z,931.10
2018-12-03T09:16:13.622Z,931.19
2018-12-03T09:17:13.647Z,931.19
2018-12-03T09:18:13.645Z,931.13
2018-12-03T09:19:13.665Z,931.12
2018-12-03T09:20:13.803Z,931.15
2018-12-03T09:21:13.718Z,931.19
2018-12-03T09:22:13.723Z,931.22
2018-12-03T09:23:13.747Z,931.25
2018-12-03T09:24:13.764Z,931.25
2018-12-03T09:25:13.884Z,931.23
2018-12-03T09:26:13.799Z,931.25
2018-12-03T09:27:13.816Z,931.27
2018-12-03T09:28:13.820Z,931.28
2018-12-03T09:29:13.853Z,931.23
2018-12-03T09:30:13.977Z,931.25
2018-12-03T09:31:13.885Z,931.26
2018-12-03T09:32:13.912Z,931.23
2018-12-03T09:33:13.920Z,931.24
2018-12-03T09:34:13.939Z,931.26
2018-12-03T09:35:14.617Z,931.27
2018-12-03T09:36:13.975Z,931.24
2018-12-03T09:37:13.995Z,931.25
2018-12-03T09:38:14.009Z,931.31
2018-12-03T09:39:14.026Z,931.27
2018-12-03T09:40:14.043Z,931.27
2018-12-03T09:41:14.318Z,931.25
2018-12-03T09:42:14.278Z,931.30
2018-12-03T09:43:14.098Z,931.29
2018-12-03T09:44:14.119Z,931.30
2018-12-03T09:45:14.134Z,931.32
2018-12-03T09:46:14.134Z,931.31
2018-12-03T09:47:14.403Z,931.34
2018-12-03T09:48:14.188Z,931.30
2018-12-03T09:49:14.183Z,931.36
2018-12-03T09:50:14.215Z,931.36
2018-12-03T09:51:14.229Z,931.37
2018-12-03T09:52:14.254Z,931.40
2018-12-03T09:53:14.395Z,931.44
2018-12-03T09:54:14.280Z,931.46
2018-12-03T09:55:14.286Z,931.47
2018-12-03T09:56:14.320Z,931.50
2018-12-03T09:57:14.328Z,931.53
2018-12-03T09:58:14.813Z,931.51
2018-12-03T09:59:14.386Z,931.56
2018-12-03T10:00:14.375Z,931.57
2018-12-03T10:01:14.608Z,931.52
2018-12-03T10:02:14.430Z,931.48
2018-12-03T10:03:14.695Z,931.46
2018-12-03T10:04:14.459Z,931.44
2018-12-03T10:05:14.482Z,931.39
2018-12-03T10:06:14.500Z,931.35
2018-12-03T10:07:14.513Z,931.36
2018-12-03T10:08:14.615Z,931.36
2018-12-03T10:09:14.542Z,931.42
2018-12-03T10:10:14.559Z,931.44
2018-12-03T10:11:14.584Z,931.43
2018-12-03T10:12:18.190Z,931.49
2018-12-03T10:13:14.868Z,931.43
2018-12-03T10:14:15.013Z,931.49
2018-12-03T10:15:14.634Z,931.55
2018-12-03T10:16:14.667Z,931.49
2018-12-03T10:17:14.684Z,931.49
2018-12-03T10:18:14.808Z,931.48
2018-12-03T10:19:15.938Z,931.49
2018-12-03T10:20:14.745Z,931.48
2018-12-03T10:21:14.752Z,931.48
2018-12-03T10:22:14.763Z,931.52
2018-12-03T10:23:14.892Z,931.51
2018-12-03T10:24:15.009Z,931.50
2018-12-03T10:25:14.824Z,931.50
2018-12-03T10:26:15.053Z,931.52
2018-12-03T10:27:15.265Z,931.56
2018-12-03T10:28:14.969Z,931.55
2018-12-03T10:29:14.901Z,931.54
2018-12-03T10:30:14.912Z,931.51
2018-12-03T10:31:14.927Z,931.51
2018-12-03T10:32:14.946Z,931.56
2018-12-03T10:33:15.268Z,931.58
2018-12-03T10:34:14.967Z,931.66
2018-12-03T10:35:15.008Z,931.66
2018-12-03T10:36:15.426Z,931.66
2018-12-03T10:37:15.040Z,931.70
2018-12-03T10:38:15.154Z,931.70
2018-12-03T10:39:15.125Z,931.74
2018-12-03T10:40:15.288Z,931.75
2018-12-03T10:41:15.094Z,931.72
2018-12-03T10:42:15.106Z,931.80
2018-12-03T10:43:15.221Z,931.75
2018-12-03T10:44:15.367Z,931.73
2018-12-03T10:45:15.173Z,931.79
2018-12-03T10:46:15.177Z,931.79
2018-12-03T10:47:15.206Z,931.77
2018-12-03T10:48:15.326Z,931.78
2018-12-03T10:49:15.248Z,931.79
2018-12-03T10:50:15.264Z,931.79
2018-12-03T10:51:15.266Z,931.82
2018-12-03T10:52:15.685Z,931.81
2018-12-03T10:53:15.312Z,931.82
2018-12-03T10:55:15.456Z,931.82
2018-12-03T10:56:15.350Z,931.83
2018-12-03T10:57:15.383Z,931.81
2018-12-03T10:58:15.423Z,931.84
2018-12-03T10:59:15.426Z,931.79
2018-12-03T11:00:15.689Z,931.84
2018-12-03T11:01:15.651Z,931.81
2018-12-03T11:02:15.459Z,931.79
2018-12-03T11:03:15.497Z,931.85
2018-12-03T11:04:15.499Z,931.84
2018-12-03T11:05:15.624Z,931.85
2018-12-03T11:06:15.546Z,931.86
2018-12-03T11:07:16.373Z,931.81
2018-12-03T11:08:15.580Z,931.85
2018-12-03T11:09:15.802Z,931.78
2018-12-03T11:10:15.710Z,931.83
2018-12-03T11:11:15.682Z,931.82
2018-12-03T11:12:15.645Z,931.86
2018-12-03T11:13:15.704Z,931.83
2018-12-03T11:14:15.661Z,931.83
2018-12-03T11:15:15.793Z,931.90
2018-12-03T11:16:15.715Z,931.89
2018-12-03T11:17:15.731Z,931.88
2018-12-03T11:18:15.786Z,931.89
2018-12-03T11:19:15.773Z,931.93
2018-12-03T11:20:16.046Z,931.92
2018-12-03T11:21:15.805Z,931.90
2018-12-03T11:22:16.023Z,931.89
2018-12-03T11:23:15.834Z,931.87
2018-12-03T11:24:15.853Z,931.86
2018-12-03T11:25:15.950Z,931.85
2018-12-03T11:26:15.874Z,931.88
2018-12-03T11:27:15.912Z,931.87
2018-12-03T11:28:15.925Z,931.86
2018-12-03T11:29:15.939Z,931.86
2018-12-03T11:30:16.057Z,931.90
2018-12-03T11:31:15.975Z,931.88
2018-12-03T11:32:16.183Z,931.87
2018-12-03T11:33:16.008Z,931.90
2018-12-03T11:34:16.013Z,931.88
2018-12-03T11:35:16.297Z,931.90
2018-12-03T11:36:16.061Z,931.94
2018-12-03T11:37:16.100Z,931.94
2018-12-03T11:38:16.082Z,931.93
2018-12-03T11:39:16.117Z,931.93
2018-12-03T11:40:16.232Z,931.93
2018-12-03T11:41:16.152Z,931.93
2018-12-03T11:42:16.369Z,931.92
2018-12-03T11:43:16.180Z,931.94
2018-12-03T11:44:16.203Z,931.94
2018-12-03T11:45:16.451Z,931.95
2018-12-03T11:46:16.427Z,931.91
2018-12-03T11:47:16.253Z,931.98
2018-12-03T11:48:16.263Z,931.92
2018-12-03T11:49:16.287Z,931.95
2018-12-03T11:50:16.307Z,931.97
2018-12-03T11:51:16.446Z,931.98
2018-12-03T11:52:16.344Z,931.99
2018-12-03T11:53:16.363Z,931.97
2018-12-03T11:54:16.374Z,932.00
2018-12-03T11:55:16.390Z,932.01
2018-12-03T11:56:16.650Z,932.00
2018-12-03T11:57:16.411Z,932.01
2018-12-03T11:58:16.653Z,932.01
2018-12-03T11:59:16.458Z,932.01
2018-12-03T12:00:16.478Z,932.05
2018-12-03T12:01:16.600Z,932.02
2018-12-03T12:02:16.499Z,932.02
2018-12-03T12:03:16.527Z,932.12
2018-12-03T12:04:16.544Z,932.09
2018-12-03T12:05:17.165Z,932.16
2018-12-03T12:06:16.679Z,932.21
2018-12-03T12:07:16.603Z,932.19
2018-12-03T12:08:16.614Z,932.17
2018-12-03T12:09:20.969Z,932.13
2018-12-03T12:10:16.648Z,932.18
2018-12-03T12:11:16.765Z,932.22
2018-12-03T12:12:16.878Z,932.25
2018-12-03T12:13:16.697Z,932.20
2018-12-03T12:14:16.721Z,932.27
2018-12-03T12:15:16.740Z,932.28
2018-12-03T12:16:16.844Z,932.27
2018-12-03T12:17:16.767Z,932.27
2018-12-03T12:18:16.787Z,932.31
2018-12-03T12:19:17.017Z,932.26
2018-12-03T12:20:16.829Z,932.25
2018-12-03T12:21:16.944Z,932.23
2018-12-03T12:22:16.858Z,932.17
2018-12-03T12:23:16.879Z,932.19
2018-12-03T12:24:16.894Z,932.19
2018-12-03T12:25:16.901Z,932.14
2018-12-03T12:26:17.167Z,932.11
2018-12-03T12:27:16.949Z,932.18
2018-12-03T12:28:16.959Z,932.15
2018-12-03T12:29:16.965Z,932.14
2018-12-03T12:30:16.987Z,932.18
2018-12-03T12:31:17.123Z,932.17